sensor_id;sensor_type;location;lat;lon;timestamp;temperature;humidity
24636;DHT22;12772;49.794;10.024;2023-08-31T00:01:35;17.50;62.40
24636;DHT22;12772;49.794;10.024;2023-08-31T00:05:42;17.50;62.50
24636;DHT22;12772;49.794;10.024;2023-08-31T00:09:44;17.50;62.30
24636;DHT22;12772;49.794;10.024;2023-08-31T00:13:46;17.50;62.10
24636;DHT22;12772;49.794;10.024;2023-08-31T00:17:48;17.50;61.90
24636;DHT22;12772;49.794;10.024;2023-08-31T00:21:51;17.50;62.00
24636;DHT22;12772;49.794;10.024;2023-08-31T00:25:53;17.40;62.00
24636;DHT22;12772;49.794;10.024;2023-08-31T00:29:56;17.40;62.00
24636;DHT22;12772;49.794;10.024;2023-08-31T00:33:59;17.40;62.00
24636;DHT22;12772;49.794;10.024;2023-08-31T00:38:04;17.40;62.00
24636;DHT22;12772;49.794;10.024;2023-08-31T00:42:06;17.50;62.00
24636;DHT22;12772;49.794;10.024;2023-08-31T00:46:10;17.50;61.80
24636;DHT22;12772;49.794;10.024;2023-08-31T00:50:12;17.50;61.70
24636;DHT22;12772;49.794;10.024;2023-08-31T00:54:16;17.50;61.60
24636;DHT22;12772;49.794;10.024;2023-08-31T00:58:18;17.50;61.50
24636;DHT22;12772;49.794;10.024;2023-08-31T01:02:30;17.40;61.50
24636;DHT22;12772;49.794;10.024;2023-08-31T01:11:08;17.40;61.90
24636;DHT22;12772;49.794;10.024;2023-08-31T01:15:14;17.40;62.10
24636;DHT22;12772;49.794;10.024;2023-08-31T01:19:39;17.40;62.20
24636;DHT22;12772;49.794;10.024;2023-08-31T01:27:47;17.40;62.30
24636;DHT22;12772;49.794;10.024;2023-08-31T01:31:49;17.40;62.40
24636;DHT22;12772;49.794;10.024;2023-08-31T01:35:53;17.40;62.40
24636;DHT22;12772;49.794;10.024;2023-08-31T01:40:01;17.40;62.20
24636;DHT22;12772;49.794;10.024;2023-08-31T01:44:06;17.40;62.10
24636;DHT22;12772;49.794;10.024;2023-08-31T01:48:14;17.40;62.20
24636;DHT22;12772;49.794;10.024;2023-08-31T01:52:16;17.30;62.00
24636;DHT22;12772;49.794;10.024;2023-08-31T01:56:18;17.30;62.10
24636;DHT22;12772;49.794;10.024;2023-08-31T02:00:22;17.30;62.10
24636;DHT22;12772;49.794;10.024;2023-08-31T02:04:24;17.30;62.00
24636;DHT22;12772;49.794;10.024;2023-08-31T02:08:26;17.30;61.80
24636;DHT22;12772;49.794;10.024;2023-08-31T02:12:28;17.30;61.80
24636;DHT22;12772;49.794;10.024;2023-08-31T02:16:31;17.30;61.80
24636;DHT22;12772;49.794;10.024;2023-08-31T02:20:34;17.40;61.60
24636;DHT22;12772;49.794;10.024;2023-08-31T02:24:36;17.30;61.50
24636;DHT22;12772;49.794;10.024;2023-08-31T02:28:38;17.40;61.30
24636;DHT22;12772;49.794;10.024;2023-08-31T02:32:40;17.40;61.10
24636;DHT22;12772;49.794;10.024;2023-08-31T02:36:42;17.40;61.10
24636;DHT22;12772;49.794;10.024;2023-08-31T02:40:46;17.30;60.90
24636;DHT22;12772;49.794;10.024;2023-08-31T02:44:52;17.30;60.80
24636;DHT22;12772;49.794;10.024;2023-08-31T02:48:54;17.30;60.40
24636;DHT22;12772;49.794;10.024;2023-08-31T02:52:57;17.20;60.50
24636;DHT22;12772;49.794;10.024;2023-08-31T02:56:59;17.10;60.60
24636;DHT22;12772;49.794;10.024;2023-08-31T03:01:10;17.10;60.50
24636;DHT22;12772;49.794;10.024;2023-08-31T03:05:13;17.10;60.30
24636;DHT22;12772;49.794;10.024;2023-08-31T03:09:15;17.10;60.10
24636;DHT22;12772;49.794;10.024;2023-08-31T03:13:19;17.00;60.40
24636;DHT22;12772;49.794;10.024;2023-08-31T03:17:21;17.00;60.40
24636;DHT22;12772;49.794;10.024;2023-08-31T03:21:23;17.00;60.50
24636;DHT22;12772;49.794;10.024;2023-08-31T03:25:27;17.00;60.30
24636;DHT22;12772;49.794;10.024;2023-08-31T03:29:29;16.90;60.00
24636;DHT22;12772;49.794;10.024;2023-08-31T03:33:32;16.80;60.10
24636;DHT22;12772;49.794;10.024;2023-08-31T03:37:35;16.70;60.30
24636;DHT22;12772;49.794;10.024;2023-08-31T03:41:37;16.70;61.10
24636;DHT22;12772;49.794;10.024;2023-08-31T03:45:39;16.70;60.80
24636;DHT22;12772;49.794;10.024;2023-08-31T03:49:41;16.70;60.80
24636;DHT22;12772;49.794;10.024;2023-08-31T03:53:43;16.70;60.90
24636;DHT22;12772;49.794;10.024;2023-08-31T03:57:45;16.60;60.70
24636;DHT22;12772;49.794;10.024;2023-08-31T04:01:47;16.60;60.90
24636;DHT22;12772;49.794;10.024;2023-08-31T04:05:54;16.50;61.00
24636;DHT22;12772;49.794;10.024;2023-08-31T04:09:56;16.50;61.20
24636;DHT22;12772;49.794;10.024;2023-08-31T04:13:58;16.50;61.30
24636;DHT22;12772;49.794;10.024;2023-08-31T04:18:00;16.50;61.30
24636;DHT22;12772;49.794;10.024;2023-08-31T04:22:03;16.50;61.30
24636;DHT22;12772;49.794;10.024;2023-08-31T04:26:12;16.40;61.50
24636;DHT22;12772;49.794;10.024;2023-08-31T04:30:14;16.40;61.80
24636;DHT22;12772;49.794;10.024;2023-08-31T04:34:16;16.40;62.00
24636;DHT22;12772;49.794;10.024;2023-08-31T04:38:18;16.40;62.00
24636;DHT22;12772;49.794;10.024;2023-08-31T04:42:20;16.30;62.10
24636;DHT22;12772;49.794;10.024;2023-08-31T04:46:22;16.30;62.10
24636;DHT22;12772;49.794;10.024;2023-08-31T04:50:25;16.20;62.10
24636;DHT22;12772;49.794;10.024;2023-08-31T04:54:27;16.20;62.30
24636;DHT22;12772;49.794;10.024;2023-08-31T04:58:29;16.20;62.70
24636;DHT22;12772;49.794;10.024;2023-08-31T05:02:31;16.20;62.70
24636;DHT22;12772;49.794;10.024;2023-08-31T05:06:33;16.10;62.60
24636;DHT22;12772;49.794;10.024;2023-08-31T05:10:35;16.10;62.70
24636;DHT22;12772;49.794;10.024;2023-08-31T05:14:37;16.10;62.60
24636;DHT22;12772;49.794;10.024;2023-08-31T05:18:40;16.20;62.70
24636;DHT22;12772;49.794;10.024;2023-08-31T05:22:42;16.20;62.70
24636;DHT22;12772;49.794;10.024;2023-08-31T05:26:44;16.30;62.80
24636;DHT22;12772;49.794;10.024;2023-08-31T05:30:54;16.30;62.80
24636;DHT22;12772;49.794;10.024;2023-08-31T05:34:57;16.30;62.80
24636;DHT22;12772;49.794;10.024;2023-08-31T05:39:00;16.30;62.80
24636;DHT22;12772;49.794;10.024;2023-08-31T05:43:02;16.30;62.80
24636;DHT22;12772;49.794;10.024;2023-08-31T05:47:04;16.40;62.90
24636;DHT22;12772;49.794;10.024;2023-08-31T05:51:07;16.40;62.90
24636;DHT22;12772;49.794;10.024;2023-08-31T05:55:09;16.40;62.90
24636;DHT22;12772;49.794;10.024;2023-08-31T05:59:11;16.50;63.00
24636;DHT22;12772;49.794;10.024;2023-08-31T06:03:13;16.60;63.00
24636;DHT22;12772;49.794;10.024;2023-08-31T06:07:15;16.60;63.10
24636;DHT22;12772;49.794;10.024;2023-08-31T06:11:17;16.60;63.00
24636;DHT22;12772;49.794;10.024;2023-08-31T06:15:19;16.60;63.20
24636;DHT22;12772;49.794;10.024;2023-08-31T06:19:21;16.60;63.10
24636;DHT22;12772;49.794;10.024;2023-08-31T06:23:23;16.60;63.10
24636;DHT22;12772;49.794;10.024;2023-08-31T06:27:25;16.70;63.10
24636;DHT22;12772;49.794;10.024;2023-08-31T06:31:27;16.70;63.10
24636;DHT22;12772;49.794;10.024;2023-08-31T06:35:30;16.80;63.20
24636;DHT22;12772;49.794;10.024;2023-08-31T06:39:32;16.80;63.20
24636;DHT22;12772;49.794;10.024;2023-08-31T06:43:34;16.80;63.00
24636;DHT22;12772;49.794;10.024;2023-08-31T06:47:36;16.90;62.70
24636;DHT22;12772;49.794;10.024;2023-08-31T06:51:38;16.90;62.30
24636;DHT22;12772;49.794;10.024;2023-08-31T06:55:40;16.90;61.90
24636;DHT22;12772;49.794;10.024;2023-08-31T06:59:42;17.00;61.90
24636;DHT22;12772;49.794;10.024;2023-08-31T07:03:45;17.00;61.60
24636;DHT22;12772;49.794;10.024;2023-08-31T07:07:47;17.10;61.80
24636;DHT22;12772;49.794;10.024;2023-08-31T07:11:49;17.20;61.50
24636;DHT22;12772;49.794;10.024;2023-08-31T07:15:51;17.30;61.10
24636;DHT22;12772;49.794;10.024;2023-08-31T07:19:53;17.40;60.80
24636;DHT22;12772;49.794;10.024;2023-08-31T07:23:55;17.40;60.30
24636;DHT22;12772;49.794;10.024;2023-08-31T07:27:57;17.40;59.20
24636;DHT22;12772;49.794;10.024;2023-08-31T07:32:00;17.50;59.40
24636;DHT22;12772;49.794;10.024;2023-08-31T07:36:03;17.60;59.00
24636;DHT22;12772;49.794;10.024;2023-08-31T07:40:06;17.80;57.80
24636;DHT22;12772;49.794;10.024;2023-08-31T07:44:10;17.90;56.60
24636;DHT22;12772;49.794;10.024;2023-08-31T07:48:12;18.00;54.70
24636;DHT22;12772;49.794;10.024;2023-08-31T07:52:14;18.00;54.60
24636;DHT22;12772;49.794;10.024;2023-08-31T07:56:16;18.20;53.00
24636;DHT22;12772;49.794;10.024;2023-08-31T08:00:19;18.20;51.90
24636;DHT22;12772;49.794;10.024;2023-08-31T08:04:21;18.20;51.40
24636;DHT22;12772;49.794;10.024;2023-08-31T08:08:24;18.30;51.30
24636;DHT22;12772;49.794;10.024;2023-08-31T08:12:26;18.40;49.00
24636;DHT22;12772;49.794;10.024;2023-08-31T08:16:28;18.50;48.70
24636;DHT22;12772;49.794;10.024;2023-08-31T08:20:31;18.60;49.40
24636;DHT22;12772;49.794;10.024;2023-08-31T08:24:34;18.80;49.30
24636;DHT22;12772;49.794;10.024;2023-08-31T08:28:35;19.00;47.10
24636;DHT22;12772;49.794;10.024;2023-08-31T08:32:38;19.10;46.30
24636;DHT22;12772;49.794;10.024;2023-08-31T08:36:40;19.20;44.00
24636;DHT22;12772;49.794;10.024;2023-08-31T08:40:42;19.40;44.50
24636;DHT22;12772;49.794;10.024;2023-08-31T08:44:45;19.50;44.10
24636;DHT22;12772;49.794;10.024;2023-08-31T08:48:47;19.50;43.90
24636;DHT22;12772;49.794;10.024;2023-08-31T08:52:50;19.60;43.80
24636;DHT22;12772;49.794;10.024;2023-08-31T08:56:53;19.60;43.30
24636;DHT22;12772;49.794;10.024;2023-08-31T09:00:55;19.60;42.40
24636;DHT22;12772;49.794;10.024;2023-08-31T09:04:58;19.50;41.50
24636;DHT22;12772;49.794;10.024;2023-08-31T09:09:00;19.60;40.90
24636;DHT22;12772;49.794;10.024;2023-08-31T09:13:05;19.50;40.70
24636;DHT22;12772;49.794;10.024;2023-08-31T09:17:07;19.50;41.80
24636;DHT22;12772;49.794;10.024;2023-08-31T09:21:11;19.50;41.20
24636;DHT22;12772;49.794;10.024;2023-08-31T09:25:14;19.30;41.90
24636;DHT22;12772;49.794;10.024;2023-08-31T09:29:16;19.30;42.30
24636;DHT22;12772;49.794;10.024;2023-08-31T09:33:19;19.30;42.50
24636;DHT22;12772;49.794;10.024;2023-08-31T09:37:22;19.30;43.10
24636;DHT22;12772;49.794;10.024;2023-08-31T09:41:24;19.50;43.40
24636;DHT22;12772;49.794;10.024;2023-08-31T09:45:30;19.70;42.70
24636;DHT22;12772;49.794;10.024;2023-08-31T09:49:33;19.90;42.20
24636;DHT22;12772;49.794;10.024;2023-08-31T09:53:37;20.10;41.30
24636;DHT22;12772;49.794;10.024;2023-08-31T09:57:40;20.30;39.10
24636;DHT22;12772;49.794;10.024;2023-08-31T10:01:44;20.40;39.60
24636;DHT22;12772;49.794;10.024;2023-08-31T10:05:48;20.40;39.60
24636;DHT22;12772;49.794;10.024;2023-08-31T10:09:50;20.40;39.60
24636;DHT22;12772;49.794;10.024;2023-08-31T10:13:53;20.40;39.40
24636;DHT22;12772;49.794;10.024;2023-08-31T10:17:56;20.40;39.30
24636;DHT22;12772;49.794;10.024;2023-08-31T10:21:59;20.40;39.40
24636;DHT22;12772;49.794;10.024;2023-08-31T10:26:04;20.40;39.30
24636;DHT22;12772;49.794;10.024;2023-08-31T10:34:37;20.40;39.30
24636;DHT22;12772;49.794;10.024;2023-08-31T10:38:45;20.50;39.00
24636;DHT22;12772;49.794;10.024;2023-08-31T10:43:14;20.70;37.50
24636;DHT22;12772;49.794;10.024;2023-08-31T10:47:16;20.90;36.80
24636;DHT22;12772;49.794;10.024;2023-08-31T10:51:21;20.90;36.60
24636;DHT22;12772;49.794;10.024;2023-08-31T10:55:23;21.00;35.90
24636;DHT22;12772;49.794;10.024;2023-08-31T10:59:42;20.90;35.20
24636;DHT22;12772;49.794;10.024;2023-08-31T11:03:59;20.80;35.20
24636;DHT22;12772;49.794;10.024;2023-08-31T11:08:01;20.80;35.90
24636;DHT22;12772;49.794;10.024;2023-08-31T11:12:04;20.70;35.90
24636;DHT22;12772;49.794;10.024;2023-08-31T11:16:06;20.80;36.20
24636;DHT22;12772;49.794;10.024;2023-08-31T11:20:13;20.90;35.40
24636;DHT22;12772;49.794;10.024;2023-08-31T11:24:16;20.90;35.80
24636;DHT22;12772;49.794;10.024;2023-08-31T11:28:19;20.80;36.10
24636;DHT22;12772;49.794;10.024;2023-08-31T11:32:24;20.80;36.10
24636;DHT22;12772;49.794;10.024;2023-08-31T11:36:26;20.70;36.50
24636;DHT22;12772;49.794;10.024;2023-08-31T11:40:28;20.70;36.80
24636;DHT22;12772;49.794;10.024;2023-08-31T11:44:31;20.60;37.00
24636;DHT22;12772;49.794;10.024;2023-08-31T11:48:33;20.60;37.40
24636;DHT22;12772;49.794;10.024;2023-08-31T11:52:36;20.60;37.30
24636;DHT22;12772;49.794;10.024;2023-08-31T11:56:47;20.60;37.00
24636;DHT22;12772;49.794;10.024;2023-08-31T12:00:56;20.60;36.80
24636;DHT22;12772;49.794;10.024;2023-08-31T12:04:58;20.70;37.30
24636;DHT22;12772;49.794;10.024;2023-08-31T12:09:00;20.70;37.00
24636;DHT22;12772;49.794;10.024;2023-08-31T12:13:08;20.70;35.90
24636;DHT22;12772;49.794;10.024;2023-08-31T12:17:11;20.90;36.60
24636;DHT22;12772;49.794;10.024;2023-08-31T12:21:13;21.10;36.60
24636;DHT22;12772;49.794;10.024;2023-08-31T12:25:23;21.40;35.60
24636;DHT22;12772;49.794;10.024;2023-08-31T12:29:25;21.60;33.50
24636;DHT22;12772;49.794;10.024;2023-08-31T12:33:27;21.80;33.10
24636;DHT22;12772;49.794;10.024;2023-08-31T12:37:29;21.90;32.60
24636;DHT22;12772;49.794;10.024;2023-08-31T12:41:31;22.10;32.10
24636;DHT22;12772;49.794;10.024;2023-08-31T12:45:33;22.20;32.30
24636;DHT22;12772;49.794;10.024;2023-08-31T12:49:35;22.20;31.20
24636;DHT22;12772;49.794;10.024;2023-08-31T12:53:38;22.30;31.20
24636;DHT22;12772;49.794;10.024;2023-08-31T12:57:41;22.40;30.10
24636;DHT22;12772;49.794;10.024;2023-08-31T13:01:43;22.50;30.00
24636;DHT22;12772;49.794;10.024;2023-08-31T13:05:45;22.60;29.90
24636;DHT22;12772;49.794;10.024;2023-08-31T13:09:47;22.70;30.00
24636;DHT22;12772;49.794;10.024;2023-08-31T13:13:50;22.70;29.90
24636;DHT22;12772;49.794;10.024;2023-08-31T13:17:53;22.70;29.40
24636;DHT22;12772;49.794;10.024;2023-08-31T13:21:55;22.70;29.70
24636;DHT22;12772;49.794;10.024;2023-08-31T13:25:57;22.60;29.20
24636;DHT22;12772;49.794;10.024;2023-08-31T13:29:59;22.50;28.90
24636;DHT22;12772;49.794;10.024;2023-08-31T13:34:01;22.40;28.80
24636;DHT22;12772;49.794;10.024;2023-08-31T13:38:04;22.30;29.00
24636;DHT22;12772;49.794;10.024;2023-08-31T13:42:06;22.20;28.70
24636;DHT22;12772;49.794;10.024;2023-08-31T13:46:08;22.30;28.40
24636;DHT22;12772;49.794;10.024;2023-08-31T13:50:10;22.40;28.00
24636;DHT22;12772;49.794;10.024;2023-08-31T13:54:12;22.60;28.00
24636;DHT22;12772;49.794;10.024;2023-08-31T13:58:14;22.70;27.90
24636;DHT22;12772;49.794;10.024;2023-08-31T14:02:16;22.80;27.20
24636;DHT22;12772;49.794;10.024;2023-08-31T14:06:18;22.90;26.70
24636;DHT22;12772;49.794;10.024;2023-08-31T14:10:21;23.00;26.60
24636;DHT22;12772;49.794;10.024;2023-08-31T14:14:23;23.10;26.40
24636;DHT22;12772;49.794;10.024;2023-08-31T14:18:29;23.20;25.60
24636;DHT22;12772;49.794;10.024;2023-08-31T14:22:32;23.30;25.50
24636;DHT22;12772;49.794;10.024;2023-08-31T14:26:34;23.40;25.80
24636;DHT22;12772;49.794;10.024;2023-08-31T14:30:36;23.40;26.00
24636;DHT22;12772;49.794;10.024;2023-08-31T14:34:39;23.40;26.30
24636;DHT22;12772;49.794;10.024;2023-08-31T14:38:41;23.40;26.40
24636;DHT22;12772;49.794;10.024;2023-08-31T14:42:43;23.30;26.40
24636;DHT22;12772;49.794;10.024;2023-08-31T14:46:45;23.20;27.00
24636;DHT22;12772;49.794;10.024;2023-08-31T14:50:49;23.20;27.10
24636;DHT22;12772;49.794;10.024;2023-08-31T14:54:52;23.10;26.70
24636;DHT22;12772;49.794;10.024;2023-08-31T14:58:54;23.00;26.90
24636;DHT22;12772;49.794;10.024;2023-08-31T15:02:56;22.90;26.70
24636;DHT22;12772;49.794;10.024;2023-08-31T15:06:58;22.80;27.30
24636;DHT22;12772;49.794;10.024;2023-08-31T15:11:00;22.90;27.50
24636;DHT22;12772;49.794;10.024;2023-08-31T15:15:04;22.90;27.00
24636;DHT22;12772;49.794;10.024;2023-08-31T15:19:07;22.90;27.50
24636;DHT22;12772;49.794;10.024;2023-08-31T15:23:10;22.90;27.60
24636;DHT22;12772;49.794;10.024;2023-08-31T15:27:12;22.90;27.60
24636;DHT22;12772;49.794;10.024;2023-08-31T15:31:14;22.80;27.80
24636;DHT22;12772;49.794;10.024;2023-08-31T15:35:20;22.80;27.90
24636;DHT22;12772;49.794;10.024;2023-08-31T15:39:22;22.90;28.00
24636;DHT22;12772;49.794;10.024;2023-08-31T15:43:32;22.90;27.90
24636;DHT22;12772;49.794;10.024;2023-08-31T15:47:34;22.90;27.60
24636;DHT22;12772;49.794;10.024;2023-08-31T15:51:36;22.90;27.70
24636;DHT22;12772;49.794;10.024;2023-08-31T15:55:38;22.80;27.40
24636;DHT22;12772;49.794;10.024;2023-08-31T15:59:40;22.80;27.80
24636;DHT22;12772;49.794;10.024;2023-08-31T16:03:43;22.80;27.60
24636;DHT22;12772;49.794;10.024;2023-08-31T16:07:45;22.80;27.80
24636;DHT22;12772;49.794;10.024;2023-08-31T16:11:47;22.70;28.00
24636;DHT22;12772;49.794;10.024;2023-08-31T16:15:49;22.80;28.30
24636;DHT22;12772;49.794;10.024;2023-08-31T16:19:52;22.70;28.30
24636;DHT22;12772;49.794;10.024;2023-08-31T16:23:54;22.70;28.20
24636;DHT22;12772;49.794;10.024;2023-08-31T16:27:56;22.70;28.30
24636;DHT22;12772;49.794;10.024;2023-08-31T16:31:58;22.60;28.70
24636;DHT22;12772;49.794;10.024;2023-08-31T16:36:01;22.50;28.50
24636;DHT22;12772;49.794;10.024;2023-08-31T16:40:05;22.40;29.30
24636;DHT22;12772;49.794;10.024;2023-08-31T16:44:07;22.40;29.70
24636;DHT22;12772;49.794;10.024;2023-08-31T16:48:09;22.30;29.60
24636;DHT22;12772;49.794;10.024;2023-08-31T16:52:12;22.20;29.50
24636;DHT22;12772;49.794;10.024;2023-08-31T16:56:14;22.10;29.40
24636;DHT22;12772;49.794;10.024;2023-08-31T17:00:16;22.10;29.70
24636;DHT22;12772;49.794;10.024;2023-08-31T17:04:18;21.90;30.10
24636;DHT22;12772;49.794;10.024;2023-08-31T17:08:20;21.80;30.30
24636;DHT22;12772;49.794;10.024;2023-08-31T17:12:23;21.80;30.90
24636;DHT22;12772;49.794;10.024;2023-08-31T17:16:25;21.70;31.30
24636;DHT22;12772;49.794;10.024;2023-08-31T17:20:27;21.60;31.50
24636;DHT22;12772;49.794;10.024;2023-08-31T17:24:31;21.60;31.80
24636;DHT22;12772;49.794;10.024;2023-08-31T17:28:33;21.50;32.10
24636;DHT22;12772;49.794;10.024;2023-08-31T17:32:38;21.40;32.50
24636;DHT22;12772;49.794;10.024;2023-08-31T17:36:40;21.40;32.90
24636;DHT22;12772;49.794;10.024;2023-08-31T17:40:42;21.30;33.10
24636;DHT22;12772;49.794;10.024;2023-08-31T17:44:44;21.30;33.60
24636;DHT22;12772;49.794;10.024;2023-08-31T17:48:48;21.20;33.70
24636;DHT22;12772;49.794;10.024;2023-08-31T17:52:50;21.20;33.90
24636;DHT22;12772;49.794;10.024;2023-08-31T17:56:52;21.10;34.10
24636;DHT22;12772;49.794;10.024;2023-08-31T18:00:56;21.10;34.40
24636;DHT22;12772;49.794;10.024;2023-08-31T18:04:58;21.00;34.50
24636;DHT22;12772;49.794;10.024;2023-08-31T18:09:03;21.00;34.70
24636;DHT22;12772;49.794;10.024;2023-08-31T18:13:06;20.90;34.80
24636;DHT22;12772;49.794;10.024;2023-08-31T18:17:08;20.80;34.80
24636;DHT22;12772;49.794;10.024;2023-08-31T18:21:10;20.70;34.80
24636;DHT22;12772;49.794;10.024;2023-08-31T18:25:12;20.60;34.80
24636;DHT22;12772;49.794;10.024;2023-08-31T18:29:14;20.60;35.30
24636;DHT22;12772;49.794;10.024;2023-08-31T18:33:16;20.50;35.50
24636;DHT22;12772;49.794;10.024;2023-08-31T18:37:20;20.60;35.70
24636;DHT22;12772;49.794;10.024;2023-08-31T18:41:23;20.50;35.80
24636;DHT22;12772;49.794;10.024;2023-08-31T18:45:25;20.50;35.90
24636;DHT22;12772;49.794;10.024;2023-08-31T18:49:27;20.50;36.10
24636;DHT22;12772;49.794;10.024;2023-08-31T18:53:29;20.40;36.10
24636;DHT22;12772;49.794;10.024;2023-08-31T18:57:31;20.50;36.50
24636;DHT22;12772;49.794;10.024;2023-08-31T19:01:33;20.40;36.50
24636;DHT22;12772;49.794;10.024;2023-08-31T19:05:35;20.30;36.60
24636;DHT22;12772;49.794;10.024;2023-08-31T19:09:37;20.30;36.90
24636;DHT22;12772;49.794;10.024;2023-08-31T19:13:40;20.30;37.40
24636;DHT22;12772;49.794;10.024;2023-08-31T19:17:42;20.30;37.60
24636;DHT22;12772;49.794;10.024;2023-08-31T19:21:44;20.30;37.90
24636;DHT22;12772;49.794;10.024;2023-08-31T19:25:46;20.20;37.90
24636;DHT22;12772;49.794;10.024;2023-08-31T19:29:48;20.20;38.30
24636;DHT22;12772;49.794;10.024;2023-08-31T19:33:51;20.10;38.50
24636;DHT22;12772;49.794;10.024;2023-08-31T19:37:54;20.10;39.00
24636;DHT22;12772;49.794;10.024;2023-08-31T19:41:58;20.00;39.30
24636;DHT22;12772;49.794;10.024;2023-08-31T19:46:00;19.90;39.60
24636;DHT22;12772;49.794;10.024;2023-08-31T19:50:03;19.90;40.20
24636;DHT22;12772;49.794;10.024;2023-08-31T19:54:05;19.90;40.40
24636;DHT22;12772;49.794;10.024;2023-08-31T19:58:09;19.90;41.10
24636;DHT22;12772;49.794;10.024;2023-08-31T20:02:12;19.90;41.10
24636;DHT22;12772;49.794;10.024;2023-08-31T20:06:15;19.90;41.10
24636;DHT22;12772;49.794;10.024;2023-08-31T20:10:19;19.90;41.10
24636;DHT22;12772;49.794;10.024;2023-08-31T20:14:22;19.90;41.10
24636;DHT22;12772;49.794;10.024;2023-08-31T20:18:24;19.90;41.10
24636;DHT22;12772;49.794;10.024;2023-08-31T20:22:26;19.90;41.20
24636;DHT22;12772;49.794;10.024;2023-08-31T20:26:28;19.90;41.10
24636;DHT22;12772;49.794;10.024;2023-08-31T20:30:31;19.90;41.20
24636;DHT22;12772;49.794;10.024;2023-08-31T20:34:33;19.90;41.50
24636;DHT22;12772;49.794;10.024;2023-08-31T20:38:36;19.90;41.60
24636;DHT22;12772;49.794;10.024;2023-08-31T20:42:39;19.90;42.00
24636;DHT22;12772;49.794;10.024;2023-08-31T20:46:41;19.90;42.10
24636;DHT22;12772;49.794;10.024;2023-08-31T20:50:44;19.80;42.20
24636;DHT22;12772;49.794;10.024;2023-08-31T20:54:48;19.80;42.20
24636;DHT22;12772;49.794;10.024;2023-08-31T20:58:55;19.80;42.40
24636;DHT22;12772;49.794;10.024;2023-08-31T21:02:57;19.70;42.50
24636;DHT22;12772;49.794;10.024;2023-08-31T21:06:59;19.70;42.90
24636;DHT22;12772;49.794;10.024;2023-08-31T21:11:01;19.70;43.00
24636;DHT22;12772;49.794;10.024;2023-08-31T21:15:03;19.70;43.00
24636;DHT22;12772;49.794;10.024;2023-08-31T21:19:06;19.70;43.00
24636;DHT22;12772;49.794;10.024;2023-08-31T21:23:09;19.70;43.10
24636;DHT22;12772;49.794;10.024;2023-08-31T21:27:13;19.60;43.40
24636;DHT22;12772;49.794;10.024;2023-08-31T21:31:15;19.60;43.60
24636;DHT22;12772;49.794;10.024;2023-08-31T21:35:17;19.60;43.80
24636;DHT22;12772;49.794;10.024;2023-08-31T21:39:19;19.60;43.80
24636;DHT22;12772;49.794;10.024;2023-08-31T21:43:21;19.60;44.00
24636;DHT22;12772;49.794;10.024;2023-08-31T21:47:23;19.60;44.30
24636;DHT22;12772;49.794;10.024;2023-08-31T21:51:25;19.60;44.60
24636;DHT22;12772;49.794;10.024;2023-08-31T21:55:27;19.60;45.50
24636;DHT22;12772;49.794;10.024;2023-08-31T21:59:29;19.60;45.20
24636;DHT22;12772;49.794;10.024;2023-08-31T22:03:31;19.60;45.50
24636;DHT22;12772;49.794;10.024;2023-08-31T22:07:34;19.50;46.00
24636;DHT22;12772;49.794;10.024;2023-08-31T22:11:37;19.50;46.70
24636;DHT22;12772;49.794;10.024;2023-08-31T22:15:39;19.40;47.30
24636;DHT22;12772;49.794;10.024;2023-08-31T22:19:41;19.40;47.60
24636;DHT22;12772;49.794;10.024;2023-08-31T22:23:45;19.30;47.80
24636;DHT22;12772;49.794;10.024;2023-08-31T22:27:47;19.30;48.10
24636;DHT22;12772;49.794;10.024;2023-08-31T22:31:49;19.20;48.40
24636;DHT22;12772;49.794;10.024;2023-08-31T22:35:51;19.20;48.60
24636;DHT22;12772;49.794;10.024;2023-08-31T22:39:53;19.20;49.00
24636;DHT22;12772;49.794;10.024;2023-08-31T22:43:55;19.10;49.30
24636;DHT22;12772;49.794;10.024;2023-08-31T22:47:57;19.10;49.60
24636;DHT22;12772;49.794;10.024;2023-08-31T22:51:59;19.00;50.20
24636;DHT22;12772;49.794;10.024;2023-08-31T22:56:04;18.90;50.90
24636;DHT22;12772;49.794;10.024;2023-08-31T23:00:06;18.90;51.60
24636;DHT22;12772;49.794;10.024;2023-08-31T23:04:09;18.80;52.20
24636;DHT22;12772;49.794;10.024;2023-08-31T23:08:11;18.70;53.30
24636;DHT22;12772;49.794;10.024;2023-08-31T23:12:14;18.70;53.60
24636;DHT22;12772;49.794;10.024;2023-08-31T23:16:16;18.60;53.40
24636;DHT22;12772;49.794;10.024;2023-08-31T23:20:18;18.50;54.50
24636;DHT22;12772;49.794;10.024;2023-08-31T23:24:20;18.40;55.00
24636;DHT22;12772;49.794;10.024;2023-08-31T23:28:22;18.40;56.20
24636;DHT22;12772;49.794;10.024;2023-08-31T23:32:24;18.30;57.00
24636;DHT22;12772;49.794;10.024;2023-08-31T23:36:27;18.20;57.90
24636;DHT22;12772;49.794;10.024;2023-08-31T23:40:29;18.20;58.70
24636;DHT22;12772;49.794;10.024;2023-08-31T23:44:31;18.20;59.70
24636;DHT22;12772;49.794;10.024;2023-08-31T23:48:33;18.10;60.50
24636;DHT22;12772;49.794;10.024;2023-08-31T23:52:35;18.00;61.20
24636;DHT22;12772;49.794;10.024;2023-08-31T23:56:37;17.90;61.90
